createdAt,value
2019-05-05T00:02:15.877Z,100.00
2019-05-05T00:04:46.963Z,100.00
2019-05-05T00:07:15.458Z,100.00
2019-05-05T00:09:42.225Z,100.00
2019-05-05T00:12:14.713Z,100.00
2019-05-05T00:14:46.327Z,100.00
2019-05-05T00:17:15.660Z,100.00
2019-05-05T00:19:42.405Z,100.00
2019-05-05T00:22:09.935Z,100.00
2019-05-05T00:24:36.740Z,100.00
2019-05-05T00:27:04.430Z,100.00
2019-05-05T00:29:31.463Z,100.00
2019-05-05T00:31:59.173Z,100.00
2019-05-05T00:34:26.359Z,100.00
2019-05-05T00:36:55.238Z,100.00
2019-05-05T00:39:25.349Z,100.00
2019-05-05T00:41:51.768Z,100.00
2019-05-05T00:44:19.081Z,100.00
2019-05-05T00:46:56.172Z,100.00
2019-05-05T00:49:25.204Z,100.00
2019-05-05T00:51:54.668Z,100.00
2019-05-05T00:54:24.273Z,100.00
2019-05-05T00:56:50.780Z,100.00
2019-05-05T00:59:19.894Z,100.00
2019-05-05T01:01:48.949Z,100.00
2019-05-05T01:04:18.399Z,100.00
2019-05-05T01:06:45.931Z,100.00
2019-05-05T01:09:15.203Z,100.00
2019-05-05T01:11:44.598Z,100.00
2019-05-05T01:14:12.129Z,100.00
2019-05-05T01:16:39.776Z,100.00
2019-05-05T01:19:07.392Z,100.00
2019-05-05T01:21:34.950Z,100.00
2019-05-05T01:24:02.537Z,100.00
2019-05-05T01:26:29.253Z,100.00
2019-05-05T01:28:56.645Z,100.00
2019-05-05T01:31:25.216Z,100.00
2019-05-05T01:34:09.483Z,100.00
2019-05-05T01:36:37.460Z,100.00
2019-05-05T01:39:25.317Z,100.00
2019-05-05T01:41:58.182Z,100.00
2019-05-05T01:44:25.575Z,100.00
2019-05-05T01:46:54.944Z,100.00
2019-05-05T01:49:22.051Z,100.00
2019-05-05T01:51:50.641Z,100.00
2019-05-05T01:54:18.325Z,100.00
2019-05-05T01:56:45.786Z,100.00
2019-05-05T01:59:14.321Z,100.00
2019-05-05T02:01:41.723Z,100.00
2019-05-05T02:04:09.375Z,100.00
2019-05-05T02:06:36.783Z,100.00
2019-05-05T02:09:05.605Z,100.00
2019-05-05T02:11:35.178Z,100.00
2019-05-05T02:14:02.585Z,100.00
2019-05-05T02:16:30.456Z,100.00
2019-05-05T02:18:57.949Z,100.00
2019-05-05T02:21:25.653Z,100.00
2019-05-05T02:23:54.699Z,100.00
2019-05-05T02:26:24.459Z,100.00
2019-05-05T02:29:00.052Z,100.00
2019-05-05T02:31:45.414Z,100.00
2019-05-05T02:34:16.297Z,100.00
2019-05-05T02:36:45.754Z,100.00
2019-05-05T02:39:11.947Z,100.00
2019-05-05T02:41:40.038Z,100.00
2019-05-05T02:44:07.353Z,100.00
2019-05-05T02:46:36.103Z,100.00
2019-05-05T02:49:05.421Z,100.00
2019-05-05T02:51:35.461Z,100.00
2019-05-05T02:54:04.399Z,100.00
2019-05-05T02:56:34.508Z,100.00
2019-05-05T02:59:04.943Z,100.00
2019-05-05T03:01:44.633Z,100.00
2019-05-05T03:04:13.939Z,100.00
2019-05-05T03:06:43.877Z,100.00
2019-05-05T03:09:11.078Z,100.00
2019-05-05T03:11:39.283Z,100.00
2019-05-05T03:14:08.803Z,100.00
2019-05-05T03:16:37.519Z,100.00
2019-05-05T03:19:05.563Z,100.00
2019-05-05T03:21:33.513Z,100.00
2019-05-05T03:24:00.784Z,100.00
2019-05-05T03:26:28.629Z,100.00
2019-05-05T03:29:00.407Z,100.00
2019-05-05T03:31:27.294Z,100.00
2019-05-05T03:33:55.059Z,100.00
2019-05-05T03:36:24.517Z,100.00
2019-05-05T03:38:53.565Z,100.00
2019-05-05T03:41:40.829Z,100.00
2019-05-05T03:44:27.414Z,100.00
2019-05-05T03:46:55.076Z,100.00
2019-05-05T03:49:24.370Z,100.00
2019-05-05T03:51:54.324Z,100.00
2019-05-05T03:54:23.854Z,100.00
2019-05-05T03:56:54.447Z,100.00
2019-05-05T03:59:24.269Z,100.00
2019-05-05T04:02:05.824Z,100.00
2019-05-05T04:04:34.965Z,100.00
2019-05-05T04:07:04.528Z,100.00
2019-05-05T04:09:32.047Z,100.00
2019-05-05T04:11:59.336Z,100.00
2019-05-05T04:14:26.536Z,100.00
2019-05-05T04:17:07.359Z,100.00
2019-05-05T04:19:38.890Z,100.00
2019-05-05T04:22:06.174Z,100.00
2019-05-05T04:24:34.240Z,100.00
2019-05-05T04:27:03.886Z,100.00
2019-05-05T04:29:30.929Z,100.00
2019-05-05T04:31:58.411Z,100.00
2019-05-05T04:34:25.459Z,100.00
2019-05-05T04:36:54.509Z,100.00
2019-05-05T04:39:20.856Z,100.00
2019-05-05T04:41:48.366Z,100.00
2019-05-05T04:44:17.945Z,100.00
2019-05-05T04:46:46.405Z,100.00
2019-05-05T04:49:17.762Z,100.00
2019-05-05T04:51:53.884Z,100.00
2019-05-05T04:54:24.412Z,100.00
2019-05-05T04:56:53.863Z,100.00
2019-05-05T04:59:23.403Z,100.00
2019-05-05T05:01:54.466Z,100.00
2019-05-05T05:04:24.297Z,100.00
2019-05-05T05:06:56.306Z,100.00
2019-05-05T05:09:23.945Z,100.00
2019-05-05T05:11:51.003Z,100.00
2019-05-05T05:14:18.490Z,100.00
2019-05-05T05:16:47.030Z,100.00
2019-05-05T05:19:13.982Z,100.00
2019-05-05T05:21:41.150Z,100.00
2019-05-05T05:24:08.717Z,100.00
2019-05-05T05:26:35.867Z,100.00
2019-05-05T05:29:04.542Z,100.00
2019-05-05T05:31:33.617Z,100.00
2019-05-05T05:34:01.242Z,100.00
2019-05-05T05:36:28.220Z,100.00
2019-05-05T05:38:59.593Z,100.00
2019-05-05T05:41:43.643Z,100.00
2019-05-05T05:44:21.633Z,100.00
2019-05-05T05:47:08.991Z,100.00
2019-05-05T05:49:38.423Z,100.00
2019-05-05T05:52:13.398Z,99.62
2019-05-05T05:54:34.168Z,99.00
2019-05-05T05:57:01.627Z,99.16
2019-05-05T05:59:29.599Z,99.18
2019-05-05T06:02:09.107Z,99.01
2019-05-05T06:04:25.057Z,98.37
2019-05-05T06:06:54.388Z,97.65
2019-05-05T06:09:23.792Z,97.22
2019-05-05T06:11:51.517Z,97.76
2019-05-05T06:14:18.984Z,98.57
2019-05-05T06:16:45.676Z,98.75
2019-05-05T06:19:14.104Z,98.77
2019-05-05T06:21:41.066Z,97.96
2019-05-05T06:24:08.072Z,96.71
2019-05-05T06:26:34.688Z,96.62
2019-05-05T06:29:01.496Z,96.37
2019-05-05T06:31:28.085Z,96.08
2019-05-05T06:33:55.271Z,95.75
2019-05-05T06:36:23.460Z,94.54
2019-05-05T06:38:50.748Z,93.71
2019-05-05T06:41:23.705Z,93.71
2019-05-05T06:43:55.926Z,91.63
2019-05-05T06:46:24.403Z,91.67
2019-05-05T06:48:51.229Z,91.97
2019-05-05T06:51:18.246Z,91.89
2019-05-05T06:53:45.033Z,91.62
2019-05-05T06:56:12.057Z,90.42
2019-05-05T06:58:39.239Z,88.50
2019-05-05T07:01:06.099Z,88.94
2019-05-05T07:03:33.854Z,88.41
2019-05-05T07:06:04.077Z,88.86
2019-05-05T07:08:30.312Z,88.18
2019-05-05T07:10:57.086Z,87.15
2019-05-05T07:13:24.494Z,86.23
2019-05-05T07:15:51.476Z,85.25
2019-05-05T07:18:18.624Z,83.99
2019-05-05T07:20:45.616Z,83.93
2019-05-05T07:23:14.325Z,83.76
2019-05-05T07:25:43.740Z,83.05
2019-05-05T07:28:10.064Z,81.70
2019-05-05T07:30:36.771Z,79.84
2019-05-05T07:33:04.650Z,78.76
2019-05-05T07:35:34.534Z,78.67
2019-05-05T07:38:01.308Z,77.00
2019-05-05T07:40:28.036Z,75.92
2019-05-05T07:42:55.052Z,73.83
2019-05-05T07:45:25.512Z,73.58
2019-05-05T07:47:53.934Z,73.23
2019-05-05T07:50:31.764Z,72.66
2019-05-05T07:52:50.483Z,72.54
2019-05-05T07:55:17.577Z,73.60
2019-05-05T07:57:44.398Z,74.75
2019-05-05T08:00:11.852Z,74.62
2019-05-05T08:02:38.555Z,74.06
2019-05-05T08:05:06.793Z,72.57
2019-05-05T08:07:34.171Z,72.23
2019-05-05T08:10:01.077Z,72.37
2019-05-05T08:12:28.744Z,71.33
2019-05-05T08:14:55.392Z,69.86
2019-05-05T08:17:34.161Z,69.06
2019-05-05T08:20:04.023Z,67.27
2019-05-05T08:22:31.299Z,65.37
2019-05-05T08:25:04.033Z,66.05
2019-05-05T08:27:33.988Z,67.49
2019-05-05T08:30:05.137Z,67.79
2019-05-05T08:32:35.621Z,64.89
2019-05-05T08:35:04.202Z,62.18
2019-05-05T08:37:30.783Z,60.73
2019-05-05T08:39:57.422Z,60.03
2019-05-05T08:42:24.798Z,58.31
2019-05-05T08:44:53.727Z,55.11
2019-05-05T08:47:20.395Z,52.39
2019-05-05T08:49:47.209Z,54.23
2019-05-05T08:52:15.192Z,55.41
2019-05-05T08:54:42.081Z,54.54
2019-05-05T08:57:08.809Z,53.01
2019-05-05T08:59:36.106Z,53.86
2019-05-05T09:02:04.475Z,54.59
2019-05-05T09:04:31.490Z,54.21
2019-05-05T09:06:58.705Z,55.06
2019-05-05T09:09:26.745Z,55.90
2019-05-05T09:11:54.291Z,54.35
2019-05-05T09:14:23.885Z,51.66
2019-05-05T09:16:50.382Z,49.23
2019-05-05T09:19:21.320Z,48.60
2019-05-05T09:21:48.584Z,48.39
2019-05-05T09:24:34.098Z,48.09
2019-05-05T09:27:14.182Z,49.18
2019-05-05T09:29:45.599Z,47.95
2019-05-05T09:32:13.883Z,45.91
2019-05-05T09:34:40.874Z,46.28
2019-05-05T09:37:08.273Z,45.89
2019-05-05T09:39:35.463Z,44.88
2019-05-05T09:42:04.100Z,44.67
2019-05-05T09:44:31.659Z,46.83
2019-05-05T09:46:58.351Z,47.83
2019-05-05T09:49:25.164Z,47.52
2019-05-05T09:51:54.340Z,45.81
2019-05-05T09:54:21.355Z,43.83
2019-05-05T09:56:48.140Z,43.40
2019-05-05T09:59:15.275Z,40.99
2019-05-05T10:01:44.343Z,41.31
2019-05-05T10:04:10.864Z,42.15
2019-05-05T10:06:40.901Z,43.74
2019-05-05T10:09:09.506Z,43.25
2019-05-05T10:11:40.033Z,43.19
2019-05-05T10:14:07.685Z,43.67
2019-05-05T10:16:38.191Z,43.69
2019-05-05T10:19:05.089Z,44.74
2019-05-05T10:21:33.921Z,45.21
2019-05-05T10:24:04.479Z,47.04
2019-05-05T10:26:31.284Z,48.38
2019-05-05T10:29:01.149Z,48.23
2019-05-05T10:31:27.418Z,48.12
2019-05-05T10:33:56.001Z,46.74
2019-05-05T10:36:24.488Z,44.91
2019-05-05T10:38:53.817Z,40.93
2019-05-05T10:41:20.814Z,41.01
2019-05-05T10:43:47.779Z,39.92
2019-05-05T10:46:14.984Z,39.58
2019-05-05T10:48:41.978Z,40.47
2019-05-05T10:51:08.834Z,40.82
2019-05-05T10:53:35.430Z,40.04
2019-05-05T10:56:04.439Z,38.32
2019-05-05T10:58:31.179Z,38.39
2019-05-05T11:00:59.805Z,35.77
2019-05-05T11:03:26.645Z,36.14
2019-05-05T11:05:53.969Z,36.26
2019-05-05T11:08:20.918Z,36.93
2019-05-05T11:10:47.520Z,37.86
2019-05-05T11:13:14.781Z,37.70
2019-05-05T11:15:41.506Z,37.95
2019-05-05T11:18:08.205Z,38.74
2019-05-05T11:20:35.390Z,38.94
2019-05-05T11:23:02.233Z,39.67
2019-05-05T11:25:29.847Z,40.41
2019-05-05T11:27:59.026Z,39.92
2019-05-05T11:30:34.016Z,40.91
2019-05-05T11:33:18.214Z,41.25
2019-05-05T11:35:53.915Z,42.32
2019-05-05T11:38:21.210Z,41.53
2019-05-05T11:40:49.140Z,41.81
2019-05-05T11:43:15.995Z,42.88
2019-05-05T11:45:43.873Z,42.57
2019-05-05T11:48:14.629Z,43.71
2019-05-05T11:50:40.931Z,43.96
2019-05-05T11:53:07.893Z,43.13
2019-05-05T11:55:35.081Z,41.99
2019-05-05T11:58:03.603Z,41.27
2019-05-05T12:00:30.519Z,40.52
2019-05-05T12:02:58.644Z,41.31
2019-05-05T12:05:25.519Z,41.84
2019-05-05T12:07:54.121Z,41.17
2019-05-05T12:10:23.683Z,41.58
2019-05-05T12:12:50.586Z,42.65
2019-05-05T12:15:17.512Z,42.66
2019-05-05T12:17:44.306Z,41.88
2019-05-05T12:20:13.624Z,41.32
2019-05-05T12:22:40.478Z,39.94
2019-05-05T12:25:22.541Z,39.46
2019-05-05T12:27:56.077Z,39.58
2019-05-05T12:30:24.498Z,40.11
2019-05-05T12:32:51.511Z,40.06
2019-05-05T12:35:18.522Z,41.55
2019-05-05T12:37:46.485Z,43.43
2019-05-05T12:40:14.437Z,42.82
2019-05-05T12:42:41.367Z,42.75
2019-05-05T12:45:10.446Z,43.30
2019-05-05T12:47:38.895Z,42.99
2019-05-05T12:50:06.455Z,43.14
2019-05-05T12:52:33.681Z,43.04
2019-05-05T12:55:02.934Z,42.18
2019-05-05T12:57:29.032Z,43.07
2019-05-05T12:59:56.613Z,44.26
2019-05-05T13:02:23.744Z,43.94
2019-05-05T13:04:50.574Z,43.42
2019-05-05T13:07:17.312Z,43.54
2019-05-05T13:09:44.184Z,44.45
2019-05-05T13:12:11.386Z,44.42
2019-05-05T13:14:38.205Z,44.13
2019-05-05T13:17:05.067Z,44.09
2019-05-05T13:19:36.623Z,44.02
2019-05-05T13:22:08.164Z,44.93
2019-05-05T13:24:36.696Z,45.40
2019-05-05T13:27:09.631Z,45.56
2019-05-05T13:29:34.737Z,46.47
2019-05-05T13:32:03.672Z,46.65
2019-05-05T13:34:30.721Z,48.40
2019-05-05T13:36:57.561Z,46.84
2019-05-05T13:39:24.853Z,46.94
2019-05-05T13:41:53.633Z,46.96
2019-05-05T13:44:24.968Z,45.40
2019-05-05T13:46:53.642Z,45.74
2019-05-05T13:49:34.210Z,45.59
2019-05-05T13:52:04.704Z,46.17
2019-05-05T13:54:33.469Z,44.98
2019-05-05T13:57:01.113Z,44.84
2019-05-05T13:59:27.961Z,44.76
2019-05-05T14:01:55.532Z,42.74
2019-05-05T14:04:23.350Z,42.67
2019-05-05T14:06:50.237Z,42.40
2019-05-05T14:09:16.842Z,41.80
2019-05-05T14:11:44.617Z,40.50
2019-05-05T14:14:13.651Z,41.29
2019-05-05T14:16:41.472Z,41.03
2019-05-05T14:19:08.551Z,41.13
2019-05-05T14:21:36.151Z,38.90
2019-05-05T14:24:14.343Z,39.35
2019-05-05T14:26:41.204Z,40.57
2019-05-05T14:29:10.565Z,40.69
2019-05-05T14:31:39.179Z,41.17
2019-05-05T14:34:08.080Z,41.31
2019-05-05T14:36:39.994Z,42.58
2019-05-05T14:39:09.743Z,42.93
2019-05-05T14:41:36.481Z,42.70
2019-05-05T14:44:04.428Z,42.33
2019-05-05T14:46:33.925Z,43.37
2019-05-05T14:49:00.871Z,43.95
2019-05-05T14:51:28.204Z,44.56
2019-05-05T14:53:55.942Z,45.07
2019-05-05T14:56:35.405Z,44.92
2019-05-05T14:58:54.208Z,44.57
2019-05-05T15:01:21.269Z,45.48
2019-05-05T15:03:47.971Z,46.40
2019-05-05T15:06:23.920Z,45.61
2019-05-05T15:08:58.312Z,45.91
2019-05-05T15:11:27.303Z,46.47
2019-05-05T15:13:54.119Z,45.87
2019-05-05T15:16:20.986Z,45.71
2019-05-05T15:18:47.989Z,46.02
2019-05-05T15:21:15.411Z,45.40
2019-05-05T15:23:43.628Z,45.79
2019-05-05T15:26:12.560Z,46.24
2019-05-05T15:28:40.170Z,45.34
2019-05-05T15:31:06.861Z,45.88
2019-05-05T15:33:33.693Z,46.60
2019-05-05T15:36:01.023Z,46.74
2019-05-05T15:38:27.647Z,45.84
2019-05-05T15:40:55.061Z,46.02
2019-05-05T15:43:21.886Z,46.43
2019-05-05T15:45:49.428Z,46.22
2019-05-05T15:48:16.148Z,46.09
2019-05-05T15:50:43.919Z,46.16
2019-05-05T15:53:11.091Z,45.63
2019-05-05T15:55:37.797Z,46.12
2019-05-05T15:58:04.664Z,46.14
2019-05-05T16:00:33.736Z,46.59
2019-05-05T16:03:00.586Z,46.56
2019-05-05T16:05:27.354Z,46.49
2019-05-05T16:07:54.489Z,47.31
2019-05-05T16:10:22.748Z,47.10
2019-05-05T16:12:49.842Z,47.37
2019-05-05T16:15:33.335Z,47.32
2019-05-05T16:18:19.616Z,47.31
2019-05-05T16:20:49.050Z,47.24
2019-05-05T16:23:17.664Z,46.90
2019-05-05T16:25:46.576Z,46.83
2019-05-05T16:28:14.572Z,47.18
2019-05-05T16:30:41.411Z,47.32
2019-05-05T16:33:08.065Z,46.98
2019-05-05T16:35:34.797Z,47.30
2019-05-05T16:38:04.182Z,47.09
2019-05-05T16:40:30.864Z,47.31
2019-05-05T16:42:57.742Z,47.08
2019-05-05T16:45:24.753Z,47.06
2019-05-05T16:47:54.405Z,47.25
2019-05-05T16:50:21.414Z,47.57
2019-05-05T16:52:50.084Z,47.30
2019-05-05T16:55:25.069Z,47.49
2019-05-05T16:57:52.234Z,47.60
2019-05-05T17:00:21.478Z,47.04
2019-05-05T17:02:48.542Z,46.18
2019-05-05T17:05:15.882Z,45.62
2019-05-05T17:07:42.550Z,46.10
2019-05-05T17:10:10.384Z,46.10
2019-05-05T17:12:37.915Z,45.82
2019-05-05T17:15:09.511Z,45.20
2019-05-05T17:17:38.783Z,44.38
2019-05-05T17:20:08.094Z,44.36
2019-05-05T17:22:36.690Z,44.24
2019-05-05T17:25:05.783Z,44.21
2019-05-05T17:27:47.387Z,44.62
2019-05-05T17:30:01.425Z,44.13
2019-05-05T17:32:28.657Z,44.53
2019-05-05T17:34:55.367Z,44.19
2019-05-05T17:37:23.917Z,45.07
2019-05-05T17:39:54.575Z,44.76
2019-05-05T17:42:35.192Z,45.00
2019-05-05T17:45:14.179Z,44.33
2019-05-05T17:47:55.216Z,44.23
2019-05-05T17:50:24.039Z,44.54
2019-05-05T17:52:53.747Z,45.37
2019-05-05T17:55:28.305Z,45.93
2019-05-05T17:58:01.638Z,45.90
2019-05-05T18:00:26.045Z,46.32
2019-05-05T18:02:53.481Z,46.60
2019-05-05T18:05:24.723Z,46.78
2019-05-05T18:07:51.245Z,47.07
2019-05-05T18:10:24.019Z,47.54
2019-05-05T18:12:54.067Z,47.69
2019-05-05T18:15:39.156Z,47.71
2019-05-05T18:18:05.881Z,48.02
2019-05-05T18:20:34.089Z,48.65
2019-05-05T18:23:01.346Z,48.88
2019-05-05T18:25:28.197Z,49.19
2019-05-05T18:27:54.913Z,49.50
2019-05-05T18:30:23.930Z,49.87
2019-05-05T18:32:50.650Z,50.52
2019-05-05T18:35:17.840Z,50.74
2019-05-05T18:37:44.635Z,50.67
2019-05-05T18:40:11.666Z,51.12
2019-05-05T18:42:39.061Z,51.53
2019-05-05T18:45:08.718Z,51.95
2019-05-05T18:47:35.881Z,52.25
2019-05-05T18:50:06.481Z,52.67
2019-05-05T18:52:34.621Z,53.00
2019-05-05T18:55:01.502Z,53.23
2019-05-05T18:57:29.383Z,53.56
2019-05-05T18:59:56.413Z,54.01
2019-05-05T19:02:30.913Z,54.66
2019-05-05T19:05:14.479Z,55.35
2019-05-05T19:07:54.892Z,55.93
2019-05-05T19:10:13.207Z,56.74
2019-05-05T19:12:40.777Z,57.39
2019-05-05T19:15:08.353Z,57.97
2019-05-05T19:17:35.206Z,58.77
2019-05-05T19:20:04.924Z,59.59
2019-05-05T19:22:33.856Z,60.14
2019-05-05T19:25:04.244Z,60.68
2019-05-05T19:27:33.501Z,61.06
2019-05-05T19:30:00.361Z,61.46
2019-05-05T19:32:27.326Z,62.00
2019-05-05T19:34:54.980Z,64.11
2019-05-05T19:37:23.530Z,64.45
2019-05-05T19:39:50.397Z,64.48
2019-05-05T19:42:17.800Z,65.86
2019-05-05T19:44:45.358Z,66.09
2019-05-05T19:47:14.092Z,66.27
2019-05-05T19:49:44.578Z,66.72
2019-05-05T19:52:13.494Z,67.79
2019-05-05T19:54:40.370Z,68.61
2019-05-05T19:57:06.973Z,69.70
2019-05-05T19:59:35.739Z,70.59
2019-05-05T20:02:03.642Z,70.98
2019-05-05T20:04:30.918Z,71.43
2019-05-05T20:06:57.730Z,71.93
2019-05-05T20:09:24.799Z,72.30
2019-05-05T20:11:54.352Z,72.76
2019-05-05T20:14:20.933Z,72.55
2019-05-05T20:16:58.710Z,72.40
2019-05-05T20:19:26.695Z,72.30
2019-05-05T20:21:54.409Z,71.98
2019-05-05T20:24:23.892Z,71.95
2019-05-05T20:26:50.725Z,71.81
2019-05-05T20:29:17.885Z,72.22
2019-05-05T20:31:44.512Z,72.61
2019-05-05T20:34:19.744Z,72.85
2019-05-05T20:37:04.732Z,72.52
2019-05-05T20:39:32.707Z,72.96
2019-05-05T20:41:59.594Z,72.50
2019-05-05T20:44:27.067Z,72.30
2019-05-05T20:46:54.427Z,71.92
2019-05-05T20:49:23.783Z,71.83
2019-05-05T20:51:50.704Z,71.83
2019-05-05T20:54:18.666Z,71.61
2019-05-05T20:56:46.054Z,71.44
2019-05-05T20:59:25.229Z,71.51
2019-05-05T21:01:43.907Z,71.73
2019-05-05T21:04:13.967Z,71.56
2019-05-05T21:06:40.267Z,72.15
2019-05-05T21:09:07.395Z,72.13
2019-05-05T21:11:34.160Z,72.47
2019-05-05T21:14:00.872Z,73.37
2019-05-05T21:16:27.649Z,73.93
2019-05-05T21:18:54.272Z,74.00
2019-05-05T21:21:24.823Z,74.21
2019-05-05T21:23:54.579Z,74.08
2019-05-05T21:26:23.519Z,74.44
2019-05-05T21:28:50.398Z,73.96
2019-05-05T21:31:17.643Z,74.94
2019-05-05T21:33:45.243Z,75.61
2019-05-05T21:36:14.565Z,76.01
2019-05-05T21:38:40.878Z,75.80
2019-05-05T21:41:08.777Z,75.60
2019-05-05T21:43:35.412Z,75.90
2019-05-05T21:46:04.436Z,76.92
2019-05-05T21:48:33.945Z,77.24
2019-05-05T21:51:04.838Z,77.29
2019-05-05T21:53:45.769Z,77.12
2019-05-05T21:56:34.155Z,77.25
2019-05-05T21:59:01.066Z,77.75
2019-05-05T22:01:28.818Z,78.11
2019-05-05T22:03:55.522Z,78.22
2019-05-05T22:06:24.166Z,78.59
2019-05-05T22:08:51.202Z,78.81
2019-05-05T22:11:17.957Z,79.51
2019-05-05T22:13:44.621Z,79.49
2019-05-05T22:16:13.678Z,79.82
2019-05-05T22:18:41.627Z,80.66
2019-05-05T22:21:10.330Z,80.63
2019-05-05T22:23:38.148Z,80.93
2019-05-05T22:26:05.894Z,81.91
2019-05-05T22:28:34.046Z,82.12
2019-05-05T22:31:01.955Z,82.09
2019-05-05T22:33:29.587Z,82.33
2019-05-05T22:35:57.418Z,82.78
2019-05-05T22:38:24.623Z,83.15
2019-05-05T22:40:51.736Z,83.56
2019-05-05T22:43:19.378Z,83.66
2019-05-05T22:45:46.178Z,83.77
2019-05-05T22:48:14.454Z,84.26
2019-05-05T22:50:43.666Z,84.51
2019-05-05T22:53:10.508Z,84.96
2019-05-05T22:55:37.945Z,85.91
2019-05-05T22:58:04.874Z,85.88
2019-05-05T23:00:31.695Z,86.00
2019-05-05T23:03:09.965Z,86.30
2019-05-05T23:05:44.917Z,85.94
2019-05-05T23:08:13.563Z,85.64
2019-05-05T23:10:43.643Z,86.01
2019-05-05T23:13:13.454Z,86.09
2019-05-05T23:15:43.963Z,86.21
2019-05-05T23:18:12.987Z,86.63
2019-05-05T23:21:01.919Z,87.27
2019-05-05T23:23:37.172Z,87.64
2019-05-05T23:26:06.148Z,88.47
2019-05-05T23:28:33.901Z,89.09
2019-05-05T23:31:01.327Z,89.13
2019-05-05T23:33:28.377Z,89.18
2019-05-05T23:35:55.218Z,89.42
2019-05-05T23:38:23.943Z,90.10
2019-05-05T23:40:53.972Z,90.09
2019-05-05T23:43:20.802Z,90.56
2019-05-05T23:45:47.597Z,90.64
2019-05-05T23:48:14.724Z,90.84
2019-05-05T23:50:44.442Z,91.24
2019-05-05T23:53:10.849Z,91.11
2019-05-05T23:55:38.353Z,91.81
2019-05-05T23:58:05.256Z,91.47
